createdAt,value
2023-02-25T00:00:11.063Z,99.90
2023-02-25T00:03:15.533Z,99.90
2023-02-25T00:06:22.278Z,99.90
2023-02-25T00:09:25.332Z,99.90
2023-02-25T00:12:29.682Z,99.90
2023-02-25T00:15:32.609Z,99.90
2023-02-25T00:18:35.507Z,99.90
2023-02-25T00:21:40.188Z,99.90
2023-02-25T00:24:43.276Z,99.90
2023-02-25T00:27:46.184Z,99.90
2023-02-25T00:30:49.159Z,99.90
2023-02-25T00:33:53.115Z,99.80
2023-02-25T00:36:57.401Z,99.90
2023-02-25T00:40:00.540Z,99.60
2023-02-25T00:43:03.415Z,99.80
2023-02-25T00:46:06.874Z,99.60
2023-02-25T00:49:09.760Z,99.40
2023-02-25T00:52:14.584Z,99.70
2023-02-25T00:55:17.611Z,99.70
2023-02-25T00:58:20.446Z,99.50
2023-02-25T01:01:26.217Z,99.40
2023-02-25T01:04:29.117Z,99.60
2023-02-25T01:07:33.614Z,99.30
2023-02-25T01:10:36.488Z,99.40
2023-02-25T01:13:39.379Z,99.50
2023-02-25T01:16:44.872Z,99.70
2023-02-25T01:19:47.705Z,99.90
2023-02-25T01:22:51.906Z,99.90
2023-02-25T01:25:54.766Z,99.90
2023-02-25T01:28:57.653Z,99.90
2023-02-25T01:32:02.914Z,99.90
2023-02-25T01:35:06.508Z,99.90
2023-02-25T01:38:10.708Z,99.90
2023-02-25T01:41:13.554Z,99.90
2023-02-25T01:44:18.818Z,99.90
2023-02-25T01:47:22.965Z,99.90
2023-02-25T01:50:31.558Z,99.90
2023-02-25T01:53:41.511Z,99.90
2023-02-25T01:56:49.430Z,99.90
2023-02-25T01:59:54.663Z,99.90
2023-02-25T02:02:59.043Z,99.90
2023-02-25T02:06:08.072Z,99.90
2023-02-25T02:09:15.044Z,99.90
2023-02-25T02:12:17.914Z,99.90
2023-02-25T02:15:20.793Z,99.90
2023-02-25T02:18:24.212Z,99.90
2023-02-25T02:21:46.620Z,99.90
2023-02-25T02:25:28.577Z,99.90
2023-02-25T02:29:13.112Z,99.90
2023-02-25T02:32:27.484Z,99.90
2023-02-25T02:35:37.324Z,99.90
2023-02-25T02:38:50.719Z,99.90
2023-02-25T02:42:01.847Z,99.90
2023-02-25T02:45:20.891Z,99.90
2023-02-25T02:48:31.253Z,99.90
2023-02-25T02:51:39.012Z,99.90
2023-02-25T02:54:45.253Z,99.90
2023-02-25T02:57:48.561Z,99.90
2023-02-25T03:00:57.920Z,99.90
2023-02-25T03:04:05.934Z,99.90
2023-02-25T03:07:12.369Z,99.90
2023-02-25T03:10:20.403Z,99.90
2023-02-25T03:13:23.715Z,99.90
2023-02-25T03:16:32.811Z,99.90
2023-02-25T03:19:42.644Z,99.90
2023-02-25T03:22:48.706Z,99.90
2023-02-25T03:25:55.210Z,99.90
2023-02-25T03:28:58.696Z,99.90
2023-02-25T03:32:07.365Z,99.90
2023-02-25T03:35:14.232Z,99.90
2023-02-25T03:38:21.788Z,99.90
2023-02-25T03:41:29.631Z,99.90
2023-02-25T03:44:36.833Z,99.90
2023-02-25T03:47:40.467Z,99.90
2023-02-25T03:50:49.503Z,99.90
2023-02-25T03:53:52.844Z,99.90
2023-02-25T03:56:56.923Z,99.90
2023-02-25T03:59:59.761Z,99.90
2023-02-25T04:03:02.959Z,99.90
2023-02-25T04:06:07.414Z,99.90
2023-02-25T04:09:10.281Z,99.90
2023-02-25T04:12:13.487Z,99.90
2023-02-25T04:15:16.331Z,99.90
2023-02-25T04:18:19.245Z,99.90
2023-02-25T04:21:31.870Z,99.90
2023-02-25T04:24:35.028Z,99.90
2023-02-25T04:27:37.891Z,99.90
2023-02-25T04:30:40.836Z,99.90
2023-02-25T04:33:44.156Z,99.90
2023-02-25T04:36:49.063Z,99.90
2023-02-25T04:39:51.928Z,99.90
2023-02-25T04:42:54.843Z,99.90
2023-02-25T04:45:57.845Z,99.90
2023-02-25T04:49:00.765Z,99.90
2023-02-25T04:52:05.216Z,99.90
2023-02-25T04:55:09.997Z,99.90
2023-02-25T04:58:13.140Z,99.90
2023-02-25T05:01:16.308Z,99.90
2023-02-25T05:04:19.205Z,99.90
2023-02-25T05:07:23.426Z,99.90
2023-02-25T05:10:26.269Z,99.90
2023-02-25T05:13:29.552Z,99.90
2023-02-25T05:16:32.447Z,99.90
2023-02-25T05:19:35.350Z,99.90
2023-02-25T05:22:40.174Z,99.90
2023-02-25T05:25:43.060Z,99.90
2023-02-25T05:28:45.951Z,99.90
2023-02-25T05:31:49.741Z,99.90
2023-02-25T05:34:52.703Z,99.90
2023-02-25T05:37:56.875Z,99.90
2023-02-25T05:41:01.233Z,99.90
2023-02-25T05:44:04.095Z,99.90
2023-02-25T05:47:07.644Z,99.90
2023-02-25T05:50:11.920Z,99.90
2023-02-25T05:53:16.091Z,99.90
2023-02-25T05:56:22.475Z,99.90
2023-02-25T05:59:25.567Z,99.90
2023-02-25T06:02:28.574Z,99.90
2023-02-25T06:05:31.564Z,99.90
2023-02-25T06:08:36.795Z,99.90
2023-02-25T06:11:39.640Z,99.90
2023-02-25T06:14:42.500Z,99.90
2023-02-25T06:17:45.439Z,99.90
2023-02-25T06:20:48.367Z,99.90
2023-02-25T06:23:53.504Z,99.90
2023-02-25T06:26:56.358Z,99.90
2023-02-25T06:30:00.398Z,99.90
2023-02-25T06:33:03.542Z,99.90
2023-02-25T06:36:07.685Z,99.90
2023-02-25T06:39:12.512Z,99.90
2023-02-25T06:42:15.371Z,99.90
2023-02-25T06:45:18.507Z,99.90
2023-02-25T06:48:21.336Z,99.90
2023-02-25T06:51:25.782Z,99.90
2023-02-25T06:54:29.999Z,99.90
2023-02-25T06:57:32.915Z,99.90
2023-02-25T07:00:37.657Z,99.90
2023-02-25T07:03:40.802Z,99.90
2023-02-25T07:06:43.721Z,99.90
2023-02-25T07:09:47.972Z,99.90
2023-02-25T07:12:50.819Z,99.90
2023-02-25T07:15:53.710Z,99.90
2023-02-25T07:18:56.632Z,99.90
2023-02-25T07:21:59.527Z,99.90
2023-02-25T07:25:04.282Z,99.90
2023-02-25T07:28:07.150Z,99.90
2023-02-25T07:31:12.715Z,99.90
2023-02-25T07:34:15.973Z,99.90
2023-02-25T07:37:18.813Z,99.90
2023-02-25T07:40:23.019Z,99.90
2023-02-25T07:43:25.922Z,99.90
2023-02-25T07:46:29.238Z,99.90
2023-02-25T07:49:32.138Z,99.90
2023-02-25T07:52:36.666Z,99.90
2023-02-25T07:55:44.681Z,99.90
2023-02-25T07:58:47.680Z,99.90
2023-02-25T08:01:50.551Z,99.90
2023-02-25T08:04:53.538Z,99.90
2023-02-25T08:07:56.905Z,99.90
2023-02-25T08:11:05.263Z,99.90
2023-02-25T08:14:08.252Z,99.90
2023-02-25T08:17:11.127Z,99.90
2023-02-25T08:20:14.333Z,99.90
2023-02-25T08:23:17.232Z,99.90
2023-02-25T08:26:23.504Z,99.90
2023-02-25T08:29:26.376Z,99.90
2023-02-25T08:32:29.378Z,99.90
2023-02-25T08:35:32.401Z,99.90
2023-02-25T08:38:35.227Z,99.90
2023-02-25T08:41:39.590Z,99.90
2023-02-25T08:44:42.676Z,99.90
2023-02-25T08:47:45.608Z,99.90
2023-02-25T08:50:48.459Z,99.90
2023-02-25T08:53:52.249Z,99.90
2023-02-25T08:56:57.232Z,99.90
2023-02-25T09:00:00.612Z,99.80
2023-02-25T09:03:03.483Z,99.40
2023-02-25T09:06:06.835Z,99.00
2023-02-25T09:09:11.620Z,99.90
2023-02-25T09:12:15.825Z,99.70
2023-02-25T09:15:18.737Z,99.60
2023-02-25T09:18:21.575Z,99.80
2023-02-25T09:21:25.341Z,99.10
2023-02-25T09:24:29.994Z,98.70
2023-02-25T09:27:34.728Z,98.50
2023-02-25T09:30:37.569Z,98.60
2023-02-25T09:33:42.728Z,99.00
2023-02-25T09:36:45.641Z,99.30
2023-02-25T09:39:49.039Z,99.60
2023-02-25T09:43:07.421Z,98.20
2023-02-25T09:46:14.449Z,97.80
2023-02-25T09:49:26.905Z,97.50
2023-02-25T09:52:33.850Z,97.10
2023-02-25T09:55:39.846Z,97.10
2023-02-25T09:58:46.826Z,96.50
2023-02-25T10:01:56.777Z,96.10
2023-02-25T10:05:16.363Z,95.40
2023-02-25T10:08:25.474Z,95.50
2023-02-25T10:11:42.942Z,95.10
2023-02-25T10:15:05.975Z,95.40
2023-02-25T10:18:22.108Z,94.90
2023-02-25T10:21:39.374Z,93.90
2023-02-25T10:24:46.405Z,93.50
2023-02-25T10:27:55.096Z,92.50
2023-02-25T10:31:04.408Z,93.30
2023-02-25T10:34:20.888Z,92.60
2023-02-25T10:37:27.395Z,92.90
2023-02-25T10:40:30.333Z,92.80
2023-02-25T10:43:35.687Z,92.30
2023-02-25T10:46:43.549Z,92.20
2023-02-25T10:50:11.845Z,91.20
2023-02-25T10:53:17.108Z,91.10
2023-02-25T10:56:21.400Z,90.80
2023-02-25T10:59:30.803Z,88.80
2023-02-25T11:02:41.399Z,90.50
2023-02-25T11:05:44.897Z,90.30
2023-02-25T11:08:47.818Z,90.60
2023-02-25T11:11:55.117Z,90.50
2023-02-25T11:14:57.980Z,89.50
2023-02-25T11:18:07.210Z,90.00
2023-02-25T11:21:13.471Z,90.00
2023-02-25T11:24:18.483Z,90.10
2023-02-25T11:27:31.126Z,86.20
2023-02-25T11:30:37.556Z,88.50
2023-02-25T11:33:46.760Z,89.00
2023-02-25T11:36:51.215Z,87.50
2023-02-25T11:39:55.857Z,87.80
2023-02-25T11:43:04.667Z,90.20
2023-02-25T11:46:11.840Z,87.60
2023-02-25T11:49:21.815Z,87.50
2023-02-25T11:52:33.489Z,87.70
2023-02-25T11:55:45.516Z,88.60
2023-02-25T11:59:04.286Z,89.20
2023-02-25T12:02:24.895Z,88.40
2023-02-25T12:05:50.391Z,86.00
2023-02-25T12:09:29.190Z,81.20
2023-02-25T12:13:02.956Z,80.50
2023-02-25T12:16:28.500Z,75.00
2023-02-25T12:20:04.752Z,75.40
2023-02-25T12:23:43.766Z,76.00
2023-02-25T12:27:28.671Z,75.50
2023-02-25T12:31:08.064Z,75.90
2023-02-25T12:34:30.316Z,76.70
2023-02-25T12:37:47.041Z,76.70
2023-02-25T12:41:09.878Z,78.20
2023-02-25T12:44:38.758Z,77.30
2023-02-25T12:47:53.463Z,76.40
2023-02-25T12:51:17.577Z,77.60
2023-02-25T12:54:34.625Z,75.50
2023-02-25T12:57:49.915Z,76.00
2023-02-25T13:01:22.324Z,77.70
2023-02-25T13:04:58.167Z,77.80
2023-02-25T13:08:45.479Z,77.60
2023-02-25T13:12:13.409Z,73.20
2023-02-25T13:15:23.412Z,73.60
2023-02-25T13:18:36.763Z,72.20
2023-02-25T13:21:56.204Z,69.00
2023-02-25T13:25:11.616Z,66.40
2023-02-25T13:28:25.845Z,65.80
2023-02-25T13:31:41.123Z,67.20
2023-02-25T13:34:49.788Z,63.90
2023-02-25T13:38:03.498Z,66.20
2023-02-25T13:41:36.654Z,64.30
2023-02-25T13:44:56.355Z,63.20
2023-02-25T13:48:22.898Z,65.50
2023-02-25T13:52:14.676Z,66.90
2023-02-25T13:55:46.350Z,64.60
2023-02-25T13:59:18.103Z,66.60
2023-02-25T14:02:57.289Z,66.10
2023-02-25T14:06:19.364Z,67.70
2023-02-25T14:09:41.308Z,69.30
2023-02-25T14:12:54.774Z,69.00
2023-02-25T14:16:08.219Z,69.80
2023-02-25T14:19:31.420Z,69.80
2023-02-25T14:22:41.295Z,70.50
2023-02-25T14:25:58.084Z,71.10
2023-02-25T14:29:18.672Z,70.80
2023-02-25T14:32:33.228Z,72.00
2023-02-25T14:35:56.433Z,72.40
2023-02-25T14:39:14.831Z,72.40
2023-02-25T14:42:39.444Z,74.50
2023-02-25T14:45:48.201Z,73.30
2023-02-25T14:49:00.403Z,73.70
2023-02-25T14:52:27.258Z,74.00
2023-02-25T14:55:43.816Z,73.60
2023-02-25T14:59:24.175Z,74.00
2023-02-25T15:02:51.198Z,74.60
2023-02-25T15:06:11.229Z,75.00
2023-02-25T15:09:56.872Z,75.70
2023-02-25T15:13:26.861Z,74.90
2023-02-25T15:17:20.704Z,75.20
2023-02-25T15:20:41.927Z,75.50
2023-02-25T15:23:52.270Z,75.50
2023-02-25T15:26:56.659Z,75.10
2023-02-25T15:30:02.782Z,74.90
2023-02-25T15:33:23.744Z,76.40
2023-02-25T15:36:41.775Z,76.50
2023-02-25T15:39:50.279Z,75.70
2023-02-25T15:42:55.183Z,75.60
2023-02-25T15:46:44.435Z,75.20
2023-02-25T15:49:48.800Z,76.00
2023-02-25T15:52:57.710Z,75.40
2023-02-25T15:56:25.313Z,75.40
2023-02-25T15:59:46.625Z,74.70
2023-02-25T16:02:58.502Z,74.70
2023-02-25T16:06:06.020Z,74.80
2023-02-25T16:09:11.411Z,75.90
2023-02-25T16:12:16.376Z,76.60
2023-02-25T16:15:26.331Z,77.00
2023-02-25T16:18:35.319Z,77.20
2023-02-25T16:21:42.033Z,77.40
2023-02-25T16:24:49.115Z,77.80
2023-02-25T16:28:00.182Z,77.30
2023-02-25T16:31:12.013Z,77.50
2023-02-25T16:34:22.831Z,77.60
2023-02-25T16:37:31.594Z,78.00
2023-02-25T16:40:39.003Z,78.30
2023-02-25T16:43:44.544Z,78.80
2023-02-25T16:46:51.930Z,79.00
2023-02-25T16:49:59.200Z,78.90
2023-02-25T16:53:04.358Z,79.40
2023-02-25T16:56:13.382Z,78.20
2023-02-25T16:59:19.887Z,78.70
2023-02-25T17:02:24.899Z,78.90
2023-02-25T17:05:31.051Z,79.80
2023-02-25T17:08:34.091Z,79.10
2023-02-25T17:11:36.988Z,79.00
2023-02-25T17:14:39.876Z,79.30
2023-02-25T17:17:45.320Z,79.70
2023-02-25T17:20:50.001Z,79.70
2023-02-25T17:23:53.609Z,79.70
2023-02-25T17:26:56.727Z,80.30
2023-02-25T17:29:59.853Z,80.50
2023-02-25T17:33:02.937Z,80.90
2023-02-25T17:36:14.003Z,81.40
2023-02-25T17:39:19.141Z,82.70
2023-02-25T17:42:30.378Z,83.90
2023-02-25T17:45:44.336Z,85.40
2023-02-25T17:48:52.943Z,90.20
2023-02-25T17:52:00.586Z,91.80
2023-02-25T17:55:06.196Z,92.70
2023-02-25T17:58:24.023Z,93.10
2023-02-25T18:01:30.914Z,93.50
2023-02-25T18:04:36.380Z,93.40
2023-02-25T18:07:42.341Z,93.60
2023-02-25T18:10:55.059Z,93.60
2023-02-25T18:13:58.444Z,93.60
2023-02-25T18:17:02.192Z,93.80
2023-02-25T18:20:07.269Z,93.80
2023-02-25T18:23:22.033Z,94.10
2023-02-25T18:26:26.670Z,93.70
2023-02-25T18:29:29.776Z,93.70
2023-02-25T18:32:32.645Z,93.60
2023-02-25T18:35:35.596Z,93.80
2023-02-25T18:38:41.702Z,94.20
2023-02-25T18:41:44.555Z,94.20
2023-02-25T18:44:48.491Z,94.40
2023-02-25T18:47:52.408Z,94.60
2023-02-25T18:50:58.454Z,95.20
2023-02-25T18:54:02.712Z,94.80
2023-02-25T18:57:12.279Z,94.70
2023-02-25T19:00:17.571Z,94.60
2023-02-25T19:03:27.204Z,94.30
2023-02-25T19:06:31.983Z,94.60
2023-02-25T19:09:36.249Z,94.90
2023-02-25T19:12:39.150Z,95.10
2023-02-25T19:15:42.050Z,95.10
2023-02-25T19:18:47.112Z,95.10
2023-02-25T19:21:50.011Z,94.80
2023-02-25T19:24:54.271Z,94.60
2023-02-25T19:27:58.069Z,94.60
2023-02-25T19:31:01.127Z,94.90
2023-02-25T19:34:04.341Z,95.40
2023-02-25T19:37:07.507Z,95.40
2023-02-25T19:40:14.569Z,95.40
2023-02-25T19:43:18.860Z,95.60
2023-02-25T19:46:21.786Z,95.70
2023-02-25T19:49:24.835Z,96.30
2023-02-25T19:52:27.770Z,96.30
2023-02-25T19:55:33.333Z,96.50
2023-02-25T19:58:36.244Z,96.50
2023-02-25T20:01:39.564Z,96.40
2023-02-25T20:04:43.060Z,96.80
2023-02-25T20:07:45.903Z,97.10
2023-02-25T20:10:50.114Z,97.20
2023-02-25T20:13:53.329Z,97.10
2023-02-25T20:16:57.053Z,97.80
2023-02-25T20:19:59.908Z,97.80
2023-02-25T20:23:02.781Z,97.80
2023-02-25T20:26:09.081Z,97.90
2023-02-25T20:29:12.144Z,98.10
2023-02-25T20:32:15.183Z,98.00
2023-02-25T20:35:21.290Z,98.20
2023-02-25T20:38:27.941Z,98.60
2023-02-25T20:41:32.461Z,98.80
2023-02-25T20:44:35.548Z,98.50
2023-02-25T20:47:38.708Z,97.30
2023-02-25T20:50:42.189Z,97.10
2023-02-25T20:53:45.726Z,97.20
2023-02-25T20:56:50.680Z,97.30
2023-02-25T20:59:55.018Z,97.30
2023-02-25T21:02:57.937Z,96.80
2023-02-25T21:06:00.938Z,96.70
2023-02-25T21:09:05.324Z,96.60
2023-02-25T21:12:10.363Z,96.40
2023-02-25T21:15:13.431Z,96.20
2023-02-25T21:18:16.568Z,96.30
2023-02-25T21:21:21.407Z,96.20
2023-02-25T21:24:24.321Z,96.20
2023-02-25T21:27:29.204Z,96.10
2023-02-25T21:30:32.164Z,96.20
2023-02-25T21:33:35.582Z,96.30
2023-02-25T21:36:38.464Z,96.40
2023-02-25T21:39:42.011Z,96.70
2023-02-25T21:42:46.209Z,96.60
2023-02-25T21:45:55.909Z,97.10
2023-02-25T21:48:59.517Z,97.10
2023-02-25T21:52:02.618Z,97.40
2023-02-25T21:55:06.237Z,97.90
2023-02-25T21:58:10.651Z,98.00
2023-02-25T22:01:15.237Z,97.80
2023-02-25T22:04:18.548Z,98.00
2023-02-25T22:07:21.919Z,98.10
2023-02-25T22:10:24.876Z,98.20
2023-02-25T22:13:33.552Z,98.20
2023-02-25T22:16:37.978Z,98.20
2023-02-25T22:19:40.819Z,98.40
2023-02-25T22:22:43.729Z,98.50
2023-02-25T22:25:46.581Z,98.60
2023-02-25T22:28:54.699Z,98.80
2023-02-25T22:31:57.641Z,98.50
2023-02-25T22:35:00.595Z,98.50
2023-02-25T22:38:03.450Z,98.80
2023-02-25T22:41:07.501Z,98.40
2023-02-25T22:44:11.770Z,98.30
2023-02-25T22:47:14.625Z,97.60
2023-02-25T22:50:17.889Z,97.90
2023-02-25T22:53:20.760Z,97.50
2023-02-25T22:56:24.902Z,97.60
2023-02-25T22:59:29.354Z,97.70
2023-02-25T23:02:32.229Z,97.00
2023-02-25T23:05:35.786Z,97.90
2023-02-25T23:08:39.026Z,97.30
2023-02-25T23:11:43.732Z,97.20
2023-02-25T23:14:47.914Z,97.10
2023-02-25T23:17:50.960Z,96.90
2023-02-25T23:20:53.955Z,96.90
2023-02-25T23:23:58.459Z,96.30
2023-02-25T23:27:01.444Z,96.30
2023-02-25T23:30:07.012Z,96.80
2023-02-25T23:33:12.375Z,97.00
2023-02-25T23:36:15.807Z,96.40
2023-02-25T23:39:18.778Z,96.30
2023-02-25T23:42:21.653Z,96.40
2023-02-25T23:45:25.860Z,96.40
2023-02-25T23:48:28.737Z,96.90
2023-02-25T23:51:32.068Z,96.60
2023-02-25T23:54:34.948Z,96.70
2023-02-25T23:57:37.895Z,96.50
